sensor_id;sensor_type;location;lat;lon;timestamp;P1;durP1;ratioP1;P2;durP2;ratioP2
31308;SDS011;17936;52.446;10.840;2022-10-23T00:01:31;6.88;;;4.03;;
31308;SDS011;17936;52.446;10.840;2022-10-23T00:04:02;11.13;;;3.80;;
31308;SDS011;17936;52.446;10.840;2022-10-23T00:06:34;8.82;;;4.35;;
31308;SDS011;17936;52.446;10.840;2022-10-23T00:09:00;6.13;;;3.92;;
31308;SDS011;17936;52.446;10.840;2022-10-23T00:11:28;11.02;;;4.13;;
31308;SDS011;17936;52.446;10.840;2022-10-23T00:13:56;6.30;;;3.92;;
31308;SDS011;17936;52.446;10.840;2022-10-23T00:16:23;8.43;;;4.47;;
31308;SDS011;17936;52.446;10.840;2022-10-23T00:18:49;6.82;;;4.38;;
31308;SDS011;17936;52.446;10.840;2022-10-23T00:21:15;8.65;;;4.25;;
31308;SDS011;17936;52.446;10.840;2022-10-23T00:23:41;10.55;;;3.90;;
31308;SDS011;17936;52.446;10.840;2022-10-23T00:26:08;9.13;;;3.88;;
31308;SDS011;17936;52.446;10.840;2022-10-23T00:28:43;9.50;;;4.18;;
31308;SDS011;17936;52.446;10.840;2022-10-23T00:31:10;10.50;;;4.38;;
31308;SDS011;17936;52.446;10.840;2022-10-23T00:33:36;10.20;;;4.50;;
31308;SDS011;17936;52.446;10.840;2022-10-23T00:36:03;9.35;;;4.70;;
31308;SDS011;17936;52.446;10.840;2022-10-23T00:38:33;8.75;;;4.10;;
31308;SDS011;17936;52.446;10.840;2022-10-23T00:40:59;9.40;;;4.38;;
31308;SDS011;17936;52.446;10.840;2022-10-23T00:43:25;18.70;;;5.68;;
31308;SDS011;17936;52.446;10.840;2022-10-23T00:45:53;10.85;;;4.65;;
31308;SDS011;17936;52.446;10.840;2022-10-23T00:48:19;11.10;;;4.60;;
31308;SDS011;17936;52.446;10.840;2022-10-23T00:50:45;9.60;;;4.40;;
31308;SDS011;17936;52.446;10.840;2022-10-23T00:53:13;8.80;;;4.68;;
31308;SDS011;17936;52.446;10.840;2022-10-23T00:55:40;10.07;;;4.35;;
31308;SDS011;17936;52.446;10.840;2022-10-23T00:58:11;7.20;;;4.03;;
31308;SDS011;17936;52.446;10.840;2022-10-23T01:00:51;7.28;;;3.92;;
31308;SDS011;17936;52.446;10.840;2022-10-23T01:03:18;8.45;;;4.40;;
31308;SDS011;17936;52.446;10.840;2022-10-23T01:05:52;9.85;;;4.20;;
31308;SDS011;17936;52.446;10.840;2022-10-23T01:11:19;8.20;;;4.32;;
31308;SDS011;17936;52.446;10.840;2022-10-23T01:14:02;8.40;;;4.03;;
31308;SDS011;17936;52.446;10.840;2022-10-23T01:16:42;10.98;;;4.10;;
31308;SDS011;17936;52.446;10.840;2022-10-23T01:19:25;15.23;;;4.63;;
31308;SDS011;17936;52.446;10.840;2022-10-23T01:22:26;8.43;;;3.90;;
31308;SDS011;17936;52.446;10.840;2022-10-23T01:25:22;11.52;;;4.32;;
31308;SDS011;17936;52.446;10.840;2022-10-23T01:28:52;8.23;;;4.03;;
31308;SDS011;17936;52.446;10.840;2022-10-23T01:31:17;9.55;;;3.67;;
31308;SDS011;17936;52.446;10.840;2022-10-23T01:34:12;8.80;;;4.65;;
31308;SDS011;17936;52.446;10.840;2022-10-23T01:36:41;11.15;;;4.35;;
31308;SDS011;17936;52.446;10.840;2022-10-23T01:39:17;8.38;;;3.85;;
31308;SDS011;17936;52.446;10.840;2022-10-23T01:41:51;8.15;;;4.00;;
31308;SDS011;17936;52.446;10.840;2022-10-23T01:46:57;5.93;;;3.53;;
31308;SDS011;17936;52.446;10.840;2022-10-23T01:49:24;9.27;;;4.10;;
31308;SDS011;17936;52.446;10.840;2022-10-23T01:51:52;11.32;;;3.63;;
31308;SDS011;17936;52.446;10.840;2022-10-23T01:54:22;14.02;;;3.40;;
31308;SDS011;17936;52.446;10.840;2022-10-23T01:56:52;8.83;;;3.30;;
31308;SDS011;17936;52.446;10.840;2022-10-23T01:59:33;6.95;;;3.40;;
31308;SDS011;17936;52.446;10.840;2022-10-23T02:02:03;5.72;;;3.97;;
31308;SDS011;17936;52.446;10.840;2022-10-23T02:04:40;9.35;;;4.43;;
31308;SDS011;17936;52.446;10.840;2022-10-23T02:07:11;5.43;;;3.83;;
31308;SDS011;17936;52.446;10.840;2022-10-23T02:09:37;11.63;;;4.38;;
31308;SDS011;17936;52.446;10.840;2022-10-23T02:12:12;8.93;;;3.90;;
31308;SDS011;17936;52.446;10.840;2022-10-23T02:17:19;9.88;;;3.90;;
31308;SDS011;17936;52.446;10.840;2022-10-23T02:20:02;7.03;;;3.83;;
31308;SDS011;17936;52.446;10.840;2022-10-23T02:22:36;6.05;;;3.13;;
31308;SDS011;17936;52.446;10.840;2022-10-23T02:25:10;8.00;;;3.63;;
31308;SDS011;17936;52.446;10.840;2022-10-23T02:27:39;5.40;;;3.60;;
31308;SDS011;17936;52.446;10.840;2022-10-23T02:30:09;6.10;;;3.35;;
31308;SDS011;17936;52.446;10.840;2022-10-23T02:32:38;7.95;;;3.47;;
31308;SDS011;17936;52.446;10.840;2022-10-23T02:35:08;7.28;;;4.13;;
31308;SDS011;17936;52.446;10.840;2022-10-23T02:37:34;6.60;;;3.60;;
31308;SDS011;17936;52.446;10.840;2022-10-23T02:40:00;5.28;;;3.55;;
31308;SDS011;17936;52.446;10.840;2022-10-23T02:45:04;6.47;;;4.13;;
31308;SDS011;17936;52.446;10.840;2022-10-23T02:47:51;7.18;;;3.63;;
31308;SDS011;17936;52.446;10.840;2022-10-23T02:55:34;9.18;;;3.95;;
31308;SDS011;17936;52.446;10.840;2022-10-23T02:58:18;7.65;;;3.78;;
31308;SDS011;17936;52.446;10.840;2022-10-23T03:01:08;6.45;;;3.67;;
31308;SDS011;17936;52.446;10.840;2022-10-23T03:03:44;6.40;;;4.32;;
31308;SDS011;17936;52.446;10.840;2022-10-23T03:06:16;10.38;;;4.38;;
31308;SDS011;17936;52.446;10.840;2022-10-23T03:08:43;7.95;;;4.00;;
31308;SDS011;17936;52.446;10.840;2022-10-23T03:11:21;6.95;;;4.15;;
31308;SDS011;17936;52.446;10.840;2022-10-23T03:13:47;10.32;;;4.00;;
31308;SDS011;17936;52.446;10.840;2022-10-23T03:16:12;10.98;;;4.43;;
31308;SDS011;17936;52.446;10.840;2022-10-23T03:18:38;7.65;;;4.13;;
31308;SDS011;17936;52.446;10.840;2022-10-23T03:21:03;5.75;;;3.45;;
31308;SDS011;17936;52.446;10.840;2022-10-23T03:23:29;11.52;;;4.05;;
31308;SDS011;17936;52.446;10.840;2022-10-23T03:25:54;9.35;;;4.95;;
31308;SDS011;17936;52.446;10.840;2022-10-23T03:28:21;9.00;;;4.38;;
31308;SDS011;17936;52.446;10.840;2022-10-23T03:30:47;7.68;;;3.70;;
31308;SDS011;17936;52.446;10.840;2022-10-23T03:33:12;7.05;;;4.20;;
31308;SDS011;17936;52.446;10.840;2022-10-23T03:35:38;8.38;;;4.18;;
31308;SDS011;17936;52.446;10.840;2022-10-23T03:38:03;6.97;;;4.53;;
31308;SDS011;17936;52.446;10.840;2022-10-23T03:40:29;8.52;;;4.30;;
31308;SDS011;17936;52.446;10.840;2022-10-23T03:42:54;12.50;;;4.25;;
31308;SDS011;17936;52.446;10.840;2022-10-23T03:45:20;6.63;;;3.85;;
31308;SDS011;17936;52.446;10.840;2022-10-23T03:47:45;10.20;;;4.13;;
31308;SDS011;17936;52.446;10.840;2022-10-23T03:50:12;10.73;;;3.83;;
31308;SDS011;17936;52.446;10.840;2022-10-23T03:52:38;7.88;;;3.90;;
31308;SDS011;17936;52.446;10.840;2022-10-23T03:55:04;5.38;;;3.10;;
31308;SDS011;17936;52.446;10.840;2022-10-23T03:57:30;5.85;;;3.35;;
31308;SDS011;17936;52.446;10.840;2022-10-23T03:59:56;7.07;;;3.75;;
31308;SDS011;17936;52.446;10.840;2022-10-23T04:02:21;7.85;;;4.07;;
31308;SDS011;17936;52.446;10.840;2022-10-23T04:04:47;4.78;;;3.38;;
31308;SDS011;17936;52.446;10.840;2022-10-23T04:07:12;7.45;;;4.15;;
31308;SDS011;17936;52.446;10.840;2022-10-23T04:09:38;6.22;;;3.30;;
31308;SDS011;17936;52.446;10.840;2022-10-23T04:12:04;5.38;;;3.55;;
31308;SDS011;17936;52.446;10.840;2022-10-23T04:14:29;9.60;;;3.50;;
31308;SDS011;17936;52.446;10.840;2022-10-23T04:16:55;8.10;;;3.00;;
31308;SDS011;17936;52.446;10.840;2022-10-23T04:19:21;4.75;;;2.78;;
31308;SDS011;17936;52.446;10.840;2022-10-23T04:21:46;5.80;;;3.17;;
31308;SDS011;17936;52.446;10.840;2022-10-23T04:24:12;5.90;;;3.00;;
31308;SDS011;17936;52.446;10.840;2022-10-23T04:26:37;5.40;;;2.85;;
31308;SDS011;17936;52.446;10.840;2022-10-23T04:29:03;6.40;;;3.13;;
31308;SDS011;17936;52.446;10.840;2022-10-23T04:31:28;4.15;;;2.60;;
31308;SDS011;17936;52.446;10.840;2022-10-23T04:33:54;6.82;;;2.97;;
31308;SDS011;17936;52.446;10.840;2022-10-23T04:36:19;4.78;;;3.15;;
31308;SDS011;17936;52.446;10.840;2022-10-23T04:38:45;5.80;;;2.58;;
31308;SDS011;17936;52.446;10.840;2022-10-23T04:41:11;4.65;;;2.75;;
31308;SDS011;17936;52.446;10.840;2022-10-23T04:43:37;4.63;;;2.55;;
31308;SDS011;17936;52.446;10.840;2022-10-23T04:46:02;6.25;;;3.08;;
31308;SDS011;17936;52.446;10.840;2022-10-23T04:48:28;10.48;;;2.97;;
31308;SDS011;17936;52.446;10.840;2022-10-23T04:50:54;7.20;;;3.13;;
31308;SDS011;17936;52.446;10.840;2022-10-23T04:53:22;4.10;;;2.28;;
31308;SDS011;17936;52.446;10.840;2022-10-23T04:55:49;5.47;;;2.72;;
31308;SDS011;17936;52.446;10.840;2022-10-23T04:58:19;6.82;;;2.65;;
31308;SDS011;17936;52.446;10.840;2022-10-23T05:00:45;3.70;;;2.20;;
31308;SDS011;17936;52.446;10.840;2022-10-23T05:03:12;3.78;;;2.05;;
31308;SDS011;17936;52.446;10.840;2022-10-23T05:05:38;5.10;;;2.60;;
31308;SDS011;17936;52.446;10.840;2022-10-23T05:08:04;3.28;;;2.15;;
31308;SDS011;17936;52.446;10.840;2022-10-23T05:10:29;6.28;;;2.38;;
31308;SDS011;17936;52.446;10.840;2022-10-23T05:12:55;4.75;;;2.25;;
31308;SDS011;17936;52.446;10.840;2022-10-23T05:15:21;3.53;;;2.40;;
31308;SDS011;17936;52.446;10.840;2022-10-23T05:17:49;4.28;;;2.40;;
31308;SDS011;17936;52.446;10.840;2022-10-23T05:20:19;4.68;;;2.72;;
31308;SDS011;17936;52.446;10.840;2022-10-23T05:22:47;3.70;;;2.35;;
31308;SDS011;17936;52.446;10.840;2022-10-23T05:25:18;3.65;;;2.60;;
31308;SDS011;17936;52.446;10.840;2022-10-23T05:27:43;5.63;;;2.80;;
31308;SDS011;17936;52.446;10.840;2022-10-23T05:30:09;7.57;;;2.38;;
31308;SDS011;17936;52.446;10.840;2022-10-23T05:32:35;5.03;;;2.97;;
31308;SDS011;17936;52.446;10.840;2022-10-23T05:35:02;6.28;;;2.20;;
31308;SDS011;17936;52.446;10.840;2022-10-23T05:37:37;6.38;;;2.70;;
31308;SDS011;17936;52.446;10.840;2022-10-23T05:40:05;5.63;;;2.40;;
31308;SDS011;17936;52.446;10.840;2022-10-23T05:42:31;3.85;;;1.98;;
31308;SDS011;17936;52.446;10.840;2022-10-23T05:44:56;8.93;;;2.55;;
31308;SDS011;17936;52.446;10.840;2022-10-23T05:47:22;4.03;;;2.75;;
31308;SDS011;17936;52.446;10.840;2022-10-23T05:49:47;3.72;;;2.25;;
31308;SDS011;17936;52.446;10.840;2022-10-23T05:52:13;5.45;;;2.50;;
31308;SDS011;17936;52.446;10.840;2022-10-23T05:54:38;5.43;;;2.55;;
31308;SDS011;17936;52.446;10.840;2022-10-23T05:57:04;8.90;;;2.60;;
31308;SDS011;17936;52.446;10.840;2022-10-23T05:59:29;7.63;;;2.97;;
31308;SDS011;17936;52.446;10.840;2022-10-23T06:01:55;3.92;;;2.78;;
31308;SDS011;17936;52.446;10.840;2022-10-23T06:04:20;4.32;;;2.55;;
31308;SDS011;17936;52.446;10.840;2022-10-23T06:06:46;10.02;;;2.92;;
31308;SDS011;17936;52.446;10.840;2022-10-23T06:09:12;6.45;;;2.70;;
31308;SDS011;17936;52.446;10.840;2022-10-23T06:11:38;8.43;;;2.92;;
31308;SDS011;17936;52.446;10.840;2022-10-23T06:14:04;4.70;;;2.78;;
31308;SDS011;17936;52.446;10.840;2022-10-23T06:16:31;9.45;;;2.90;;
31308;SDS011;17936;52.446;10.840;2022-10-23T06:18:56;8.48;;;3.38;;
31308;SDS011;17936;52.446;10.840;2022-10-23T06:21:22;4.20;;;2.80;;
31308;SDS011;17936;52.446;10.840;2022-10-23T06:23:47;5.15;;;3.15;;
31308;SDS011;17936;52.446;10.840;2022-10-23T06:26:14;7.15;;;2.83;;
31308;SDS011;17936;52.446;10.840;2022-10-23T06:28:41;5.80;;;3.20;;
31308;SDS011;17936;52.446;10.840;2022-10-23T06:31:08;4.93;;;3.00;;
31308;SDS011;17936;52.446;10.840;2022-10-23T06:33:36;6.38;;;2.90;;
31308;SDS011;17936;52.446;10.840;2022-10-23T06:36:01;6.10;;;2.92;;
31308;SDS011;17936;52.446;10.840;2022-10-23T06:38:28;5.93;;;3.13;;
31308;SDS011;17936;52.446;10.840;2022-10-23T06:40:54;4.40;;;2.85;;
31308;SDS011;17936;52.446;10.840;2022-10-23T06:43:20;5.60;;;3.03;;
31308;SDS011;17936;52.446;10.840;2022-10-23T06:45:46;5.57;;;2.67;;
31308;SDS011;17936;52.446;10.840;2022-10-23T06:48:12;5.18;;;3.00;;
31308;SDS011;17936;52.446;10.840;2022-10-23T06:50:38;9.35;;;3.15;;
31308;SDS011;17936;52.446;10.840;2022-10-23T06:53:04;4.15;;;2.70;;
31308;SDS011;17936;52.446;10.840;2022-10-23T06:55:30;7.20;;;2.92;;
31308;SDS011;17936;52.446;10.840;2022-10-23T06:57:56;11.40;;;4.18;;
31308;SDS011;17936;52.446;10.840;2022-10-23T07:00:22;12.13;;;3.72;;
31308;SDS011;17936;52.446;10.840;2022-10-23T07:02:48;6.18;;;2.83;;
31308;SDS011;17936;52.446;10.840;2022-10-23T07:05:14;9.13;;;3.17;;
31308;SDS011;17936;52.446;10.840;2022-10-23T07:07:40;4.40;;;2.70;;
31308;SDS011;17936;52.446;10.840;2022-10-23T07:10:07;7.60;;;3.42;;
31308;SDS011;17936;52.446;10.840;2022-10-23T07:12:33;4.40;;;3.00;;
31308;SDS011;17936;52.446;10.840;2022-10-23T07:14:58;4.97;;;2.75;;
31308;SDS011;17936;52.446;10.840;2022-10-23T07:17:24;4.82;;;2.25;;
31308;SDS011;17936;52.446;10.840;2022-10-23T07:19:49;4.55;;;2.28;;
31308;SDS011;17936;52.446;10.840;2022-10-23T07:22:15;12.25;;;3.03;;
31308;SDS011;17936;52.446;10.840;2022-10-23T07:24:40;3.65;;;2.30;;
31308;SDS011;17936;52.446;10.840;2022-10-23T07:27:06;4.82;;;2.28;;
31308;SDS011;17936;52.446;10.840;2022-10-23T07:29:31;10.57;;;2.78;;
31308;SDS011;17936;52.446;10.840;2022-10-23T07:31:57;6.00;;;2.92;;
31308;SDS011;17936;52.446;10.840;2022-10-23T07:34:25;2.90;;;2.22;;
31308;SDS011;17936;52.446;10.840;2022-10-23T07:36:50;5.25;;;2.63;;
31308;SDS011;17936;52.446;10.840;2022-10-23T07:39:16;8.00;;;3.28;;
31308;SDS011;17936;52.446;10.840;2022-10-23T07:41:41;5.53;;;2.70;;
31308;SDS011;17936;52.446;10.840;2022-10-23T07:44:07;6.15;;;3.15;;
31308;SDS011;17936;52.446;10.840;2022-10-23T07:46:32;9.13;;;3.25;;
31308;SDS011;17936;52.446;10.840;2022-10-23T07:48:59;4.97;;;3.00;;
31308;SDS011;17936;52.446;10.840;2022-10-23T07:51:27;7.38;;;3.65;;
31308;SDS011;17936;52.446;10.840;2022-10-23T07:53:52;8.10;;;2.75;;
31308;SDS011;17936;52.446;10.840;2022-10-23T07:56:22;3.97;;;2.40;;
31308;SDS011;17936;52.446;10.840;2022-10-23T07:58:50;3.90;;;2.50;;
31308;SDS011;17936;52.446;10.840;2022-10-23T08:01:19;4.32;;;2.65;;
31308;SDS011;17936;52.446;10.840;2022-10-23T08:03:51;12.48;;;3.72;;
31308;SDS011;17936;52.446;10.840;2022-10-23T08:06:17;6.22;;;2.50;;
31308;SDS011;17936;52.446;10.840;2022-10-23T08:08:42;6.43;;;2.25;;
31308;SDS011;17936;52.446;10.840;2022-10-23T08:11:09;4.53;;;3.00;;
31308;SDS011;17936;52.446;10.840;2022-10-23T08:13:37;3.63;;;2.75;;
31308;SDS011;17936;52.446;10.840;2022-10-23T08:16:02;5.05;;;2.50;;
31308;SDS011;17936;52.446;10.840;2022-10-23T08:18:28;6.25;;;2.83;;
31308;SDS011;17936;52.446;10.840;2022-10-23T08:20:58;6.03;;;3.10;;
31308;SDS011;17936;52.446;10.840;2022-10-23T08:23:25;8.13;;;3.25;;
31308;SDS011;17936;52.446;10.840;2022-10-23T08:25:55;6.32;;;2.78;;
31308;SDS011;17936;52.446;10.840;2022-10-23T08:28:22;12.52;;;2.90;;
31308;SDS011;17936;52.446;10.840;2022-10-23T08:30:48;11.10;;;3.45;;
31308;SDS011;17936;52.446;10.840;2022-10-23T08:33:13;4.00;;;2.75;;
31308;SDS011;17936;52.446;10.840;2022-10-23T08:35:39;4.65;;;2.90;;
31308;SDS011;17936;52.446;10.840;2022-10-23T08:38:05;8.02;;;2.72;;
31308;SDS011;17936;52.446;10.840;2022-10-23T08:40:31;5.78;;;2.55;;
31308;SDS011;17936;52.446;10.840;2022-10-23T08:43:00;6.68;;;2.75;;
31308;SDS011;17936;52.446;10.840;2022-10-23T08:48:12;10.35;;;3.08;;
31308;SDS011;17936;52.446;10.840;2022-10-23T08:50:44;5.10;;;2.45;;
31308;SDS011;17936;52.446;10.840;2022-10-23T08:53:26;10.73;;;2.85;;
31308;SDS011;17936;52.446;10.840;2022-10-23T08:56:00;7.70;;;2.63;;
31308;SDS011;17936;52.446;10.840;2022-10-23T08:58:44;5.95;;;2.08;;
31308;SDS011;17936;52.446;10.840;2022-10-23T09:01:20;4.97;;;2.28;;
31308;SDS011;17936;52.446;10.840;2022-10-23T09:04:02;7.90;;;2.80;;
31308;SDS011;17936;52.446;10.840;2022-10-23T09:06:36;8.25;;;2.35;;
31308;SDS011;17936;52.446;10.840;2022-10-23T09:09:23;8.57;;;2.33;;
31308;SDS011;17936;52.446;10.840;2022-10-23T09:12:11;4.68;;;1.80;;
31308;SDS011;17936;52.446;10.840;2022-10-23T09:17:32;2.95;;;1.60;;
31308;SDS011;17936;52.446;10.840;2022-10-23T09:20:13;5.07;;;1.60;;
31308;SDS011;17936;52.446;10.840;2022-10-23T09:22:54;4.00;;;1.40;;
31308;SDS011;17936;52.446;10.840;2022-10-23T09:25:26;6.30;;;2.10;;
31308;SDS011;17936;52.446;10.840;2022-10-23T09:27:58;6.43;;;1.73;;
31308;SDS011;17936;52.446;10.840;2022-10-23T09:30:26;7.00;;;1.63;;
31308;SDS011;17936;52.446;10.840;2022-10-23T09:35:51;7.07;;;1.73;;
31308;SDS011;17936;52.446;10.840;2022-10-23T09:38:26;6.40;;;1.40;;
31308;SDS011;17936;52.446;10.840;2022-10-23T09:40:53;9.75;;;1.83;;
31308;SDS011;17936;52.446;10.840;2022-10-23T09:43:19;5.90;;;1.50;;
31308;SDS011;17936;52.446;10.840;2022-10-23T09:45:58;7.97;;;2.20;;
31308;SDS011;17936;52.446;10.840;2022-10-23T09:48:29;8.82;;;2.20;;
31308;SDS011;17936;52.446;10.840;2022-10-23T09:50:56;3.83;;;1.50;;
31308;SDS011;17936;52.446;10.840;2022-10-23T09:53:31;5.03;;;1.50;;
31308;SDS011;17936;52.446;10.840;2022-10-23T09:55:59;7.40;;;1.50;;
31308;SDS011;17936;52.446;10.840;2022-10-23T09:58:30;1.92;;;1.20;;
31308;SDS011;17936;52.446;10.840;2022-10-23T10:00:59;2.78;;;1.10;;
31308;SDS011;17936;52.446;10.840;2022-10-23T10:03:25;3.83;;;1.15;;
31308;SDS011;17936;52.446;10.840;2022-10-23T10:05:55;3.17;;;1.60;;
31308;SDS011;17936;52.446;10.840;2022-10-23T10:08:36;4.30;;;1.50;;
31308;SDS011;17936;52.446;10.840;2022-10-23T10:11:12;5.05;;;1.75;;
31308;SDS011;17936;52.446;10.840;2022-10-23T10:25:16;6.68;;;1.02;;
31308;SDS011;17936;52.446;10.840;2022-10-23T10:28:18;5.55;;;1.30;;
31308;SDS011;17936;52.446;10.840;2022-10-23T10:30:57;6.93;;;2.15;;
31308;SDS011;17936;52.446;10.840;2022-10-23T10:33:35;7.15;;;1.50;;
31308;SDS011;17936;52.446;10.840;2022-10-23T10:36:24;3.38;;;1.20;;
31308;SDS011;17936;52.446;10.840;2022-10-23T10:41:51;4.88;;;1.33;;
31308;SDS011;17936;52.446;10.840;2022-10-23T10:47:20;6.20;;;2.22;;
31308;SDS011;17936;52.446;10.840;2022-10-23T10:53:17;3.25;;;1.33;;
31308;SDS011;17936;52.446;10.840;2022-10-23T10:55:45;7.10;;;1.45;;
31308;SDS011;17936;52.446;10.840;2022-10-23T10:58:16;3.53;;;1.35;;
31308;SDS011;17936;52.446;10.840;2022-10-23T11:00:42;4.47;;;1.20;;
31308;SDS011;17936;52.446;10.840;2022-10-23T11:05:48;6.95;;;1.52;;
31308;SDS011;17936;52.446;10.840;2022-10-23T11:08:19;7.55;;;1.52;;
31308;SDS011;17936;52.446;10.840;2022-10-23T11:13:37;6.32;;;1.42;;
31308;SDS011;17936;52.446;10.840;2022-10-23T11:16:11;5.53;;;1.83;;
31308;SDS011;17936;52.446;10.840;2022-10-23T11:18:41;5.75;;;1.63;;
31308;SDS011;17936;52.446;10.840;2022-10-23T11:38:40;7.15;;;1.63;;
31308;SDS011;17936;52.446;10.840;2022-10-23T11:41:21;3.08;;;1.33;;
31308;SDS011;17936;52.446;10.840;2022-10-23T11:43:56;5.15;;;1.48;;
31308;SDS011;17936;52.446;10.840;2022-10-23T11:46:29;10.43;;;1.65;;
31308;SDS011;17936;52.446;10.840;2022-10-23T11:48:57;5.18;;;1.75;;
31308;SDS011;17936;52.446;10.840;2022-10-23T11:51:30;4.32;;;1.50;;
31308;SDS011;17936;52.446;10.840;2022-10-23T11:54:05;5.35;;;1.35;;
31308;SDS011;17936;52.446;10.840;2022-10-23T11:56:34;5.28;;;1.20;;
31308;SDS011;17936;52.446;10.840;2022-10-23T12:04:51;5.10;;;1.88;;
31308;SDS011;17936;52.446;10.840;2022-10-23T12:07:23;5.90;;;2.03;;
31308;SDS011;17936;52.446;10.840;2022-10-23T12:10:01;5.73;;;1.50;;
31308;SDS011;17936;52.446;10.840;2022-10-23T12:12:55;6.00;;;1.90;;
31308;SDS011;17936;52.446;10.840;2022-10-23T12:15:23;4.40;;;1.20;;
31308;SDS011;17936;52.446;10.840;2022-10-23T12:17:50;6.90;;;1.73;;
31308;SDS011;17936;52.446;10.840;2022-10-23T12:20:22;4.47;;;1.45;;
31308;SDS011;17936;52.446;10.840;2022-10-23T12:28:39;5.63;;;1.23;;
31308;SDS011;17936;52.446;10.840;2022-10-23T12:34:34;5.35;;;1.55;;
31308;SDS011;17936;52.446;10.840;2022-10-23T12:40:05;5.35;;;1.23;;
31308;SDS011;17936;52.446;10.840;2022-10-23T12:42:33;7.13;;;1.80;;
31308;SDS011;17936;52.446;10.840;2022-10-23T12:45:00;6.65;;;1.35;;
31308;SDS011;17936;52.446;10.840;2022-10-23T12:47:29;4.15;;;1.30;;
31308;SDS011;17936;52.446;10.840;2022-10-23T12:49:55;5.53;;;1.77;;
31308;SDS011;17936;52.446;10.840;2022-10-23T12:52:21;3.17;;;1.35;;
31308;SDS011;17936;52.446;10.840;2022-10-23T12:54:48;4.68;;;1.40;;
31308;SDS011;17936;52.446;10.840;2022-10-23T12:57:16;2.67;;;1.00;;
31308;SDS011;17936;52.446;10.840;2022-10-23T12:59:43;3.38;;;0.93;;
31308;SDS011;17936;52.446;10.840;2022-10-23T13:02:19;3.88;;;1.40;;
31308;SDS011;17936;52.446;10.840;2022-10-23T13:04:51;4.30;;;1.20;;
31308;SDS011;17936;52.446;10.840;2022-10-23T13:07:19;1.92;;;0.85;;
31308;SDS011;17936;52.446;10.840;2022-10-23T13:09:47;1.90;;;0.82;;
31308;SDS011;17936;52.446;10.840;2022-10-23T13:12:15;3.80;;;1.55;;
31308;SDS011;17936;52.446;10.840;2022-10-23T13:17:37;4.93;;;1.10;;
31308;SDS011;17936;52.446;10.840;2022-10-23T13:23:16;2.50;;;0.93;;
31308;SDS011;17936;52.446;10.840;2022-10-23T13:25:51;4.78;;;1.38;;
31308;SDS011;17936;52.446;10.840;2022-10-23T13:28:23;9.02;;;1.15;;
31308;SDS011;17936;52.446;10.840;2022-10-23T13:30:58;6.18;;;1.30;;
31308;SDS011;17936;52.446;10.840;2022-10-23T13:33:40;13.10;;;1.17;;
31308;SDS011;17936;52.446;10.840;2022-10-23T13:38:45;1.90;;;0.85;;
31308;SDS011;17936;52.446;10.840;2022-10-23T13:41:27;4.72;;;1.40;;
31308;SDS011;17936;52.446;10.840;2022-10-23T13:43:58;4.43;;;1.17;;
31308;SDS011;17936;52.446;10.840;2022-10-23T13:46:24;2.53;;;1.00;;
31308;SDS011;17936;52.446;10.840;2022-10-23T13:48:49;1.55;;;0.98;;
31308;SDS011;17936;52.446;10.840;2022-10-23T13:51:18;3.22;;;1.00;;
31308;SDS011;17936;52.446;10.840;2022-10-23T13:53:47;12.18;;;3.95;;
31308;SDS011;17936;52.446;10.840;2022-10-23T13:56:14;4.38;;;1.88;;
31308;SDS011;17936;52.446;10.840;2022-10-23T13:58:41;5.15;;;1.70;;
31308;SDS011;17936;52.446;10.840;2022-10-23T14:01:11;5.72;;;1.60;;
31308;SDS011;17936;52.446;10.840;2022-10-23T14:03:46;3.67;;;1.45;;
31308;SDS011;17936;52.446;10.840;2022-10-23T14:06:12;6.22;;;1.73;;
31308;SDS011;17936;52.446;10.840;2022-10-23T14:08:37;5.80;;;1.95;;
31308;SDS011;17936;52.446;10.840;2022-10-23T14:11:03;6.10;;;2.85;;
31308;SDS011;17936;52.446;10.840;2022-10-23T14:13:29;3.30;;;1.63;;
31308;SDS011;17936;52.446;10.840;2022-10-23T14:15:55;5.90;;;1.48;;
31308;SDS011;17936;52.446;10.840;2022-10-23T14:18:21;6.43;;;2.00;;
31308;SDS011;17936;52.446;10.840;2022-10-23T14:20:46;5.88;;;1.75;;
31308;SDS011;17936;52.446;10.840;2022-10-23T14:23:12;3.15;;;1.52;;
31308;SDS011;17936;52.446;10.840;2022-10-23T14:25:37;4.22;;;1.80;;
31308;SDS011;17936;52.446;10.840;2022-10-23T14:28:03;3.60;;;1.70;;
31308;SDS011;17936;52.446;10.840;2022-10-23T14:30:29;5.63;;;1.67;;
31308;SDS011;17936;52.446;10.840;2022-10-23T14:32:54;3.63;;;1.40;;
31308;SDS011;17936;52.446;10.840;2022-10-23T14:35:20;5.00;;;1.85;;
31308;SDS011;17936;52.446;10.840;2022-10-23T14:37:45;5.13;;;1.75;;
31308;SDS011;17936;52.446;10.840;2022-10-23T14:40:11;4.35;;;1.85;;
31308;SDS011;17936;52.446;10.840;2022-10-23T14:42:36;3.15;;;1.80;;
31308;SDS011;17936;52.446;10.840;2022-10-23T14:45:02;6.57;;;1.83;;
31308;SDS011;17936;52.446;10.840;2022-10-23T14:47:28;8.65;;;2.05;;
31308;SDS011;17936;52.446;10.840;2022-10-23T14:49:54;6.50;;;2.28;;
31308;SDS011;17936;52.446;10.840;2022-10-23T14:52:21;4.20;;;2.17;;
31308;SDS011;17936;52.446;10.840;2022-10-23T14:54:47;6.00;;;2.22;;
31308;SDS011;17936;52.446;10.840;2022-10-23T14:57:14;3.33;;;1.80;;
31308;SDS011;17936;52.446;10.840;2022-10-23T14:59:41;4.70;;;2.10;;
31308;SDS011;17936;52.446;10.840;2022-10-23T15:02:10;8.23;;;1.90;;
31308;SDS011;17936;52.446;10.840;2022-10-23T15:04:36;5.47;;;2.25;;
31308;SDS011;17936;52.446;10.840;2022-10-23T15:07:02;3.92;;;1.83;;
31308;SDS011;17936;52.446;10.840;2022-10-23T15:09:28;7.40;;;2.20;;
31308;SDS011;17936;52.446;10.840;2022-10-23T15:11:53;6.75;;;2.13;;
31308;SDS011;17936;52.446;10.840;2022-10-23T15:14:19;7.18;;;2.20;;
31308;SDS011;17936;52.446;10.840;2022-10-23T15:16:44;6.45;;;1.88;;
31308;SDS011;17936;52.446;10.840;2022-10-23T15:19:11;3.20;;;1.65;;
31308;SDS011;17936;52.446;10.840;2022-10-23T15:21:37;5.53;;;1.88;;
31308;SDS011;17936;52.446;10.840;2022-10-23T15:24:03;10.52;;;2.40;;
31308;SDS011;17936;52.446;10.840;2022-10-23T15:26:29;3.58;;;2.00;;
31308;SDS011;17936;52.446;10.840;2022-10-23T15:28:56;8.05;;;1.90;;
31308;SDS011;17936;52.446;10.840;2022-10-23T15:33:57;4.53;;;2.05;;
31308;SDS011;17936;52.446;10.840;2022-10-23T15:36:23;7.90;;;2.03;;
31308;SDS011;17936;52.446;10.840;2022-10-23T15:38:52;6.18;;;2.15;;
31308;SDS011;17936;52.446;10.840;2022-10-23T15:41:20;6.35;;;3.30;;
31308;SDS011;17936;52.446;10.840;2022-10-23T15:43:50;4.90;;;2.40;;
31308;SDS011;17936;52.446;10.840;2022-10-23T15:46:16;5.70;;;2.35;;
31308;SDS011;17936;52.446;10.840;2022-10-23T15:48:44;4.80;;;1.98;;
31308;SDS011;17936;52.446;10.840;2022-10-23T15:51:09;7.57;;;2.35;;
31308;SDS011;17936;52.446;10.840;2022-10-23T15:53:35;8.25;;;2.10;;
31308;SDS011;17936;52.446;10.840;2022-10-23T15:56:00;5.50;;;2.22;;
31308;SDS011;17936;52.446;10.840;2022-10-23T15:58:26;5.22;;;2.25;;
31308;SDS011;17936;52.446;10.840;2022-10-23T16:00:51;8.15;;;2.38;;
31308;SDS011;17936;52.446;10.840;2022-10-23T16:03:17;5.90;;;2.05;;
31308;SDS011;17936;52.446;10.840;2022-10-23T16:05:42;5.55;;;2.65;;
31308;SDS011;17936;52.446;10.840;2022-10-23T16:08:08;8.45;;;2.40;;
31308;SDS011;17936;52.446;10.840;2022-10-23T16:10:37;6.78;;;2.13;;
31308;SDS011;17936;52.446;10.840;2022-10-23T16:13:04;9.10;;;1.70;;
31308;SDS011;17936;52.446;10.840;2022-10-23T16:15:29;6.30;;;2.15;;
31308;SDS011;17936;52.446;10.840;2022-10-23T16:17:55;4.68;;;1.67;;
31308;SDS011;17936;52.446;10.840;2022-10-23T16:20:20;5.45;;;1.98;;
31308;SDS011;17936;52.446;10.840;2022-10-23T16:22:46;4.25;;;1.92;;